sensor_id;sensor_type;location;lat;lon;timestamp;P1;durP1;ratioP1;P2;durP2;ratioP2
82125;SDS011;71668;51.400;6.758;2023-08-20T00:00:19;8.47;;;5.97;;
82125;SDS011;71668;51.400;6.758;2023-08-20T00:02:46;6.83;;;5.63;;
82125;SDS011;71668;51.400;6.758;2023-08-20T00:05:18;9.63;;;6.20;;
82125;SDS011;71668;51.400;6.758;2023-08-20T00:07:45;7.63;;;6.00;;
82125;SDS011;71668;51.400;6.758;2023-08-20T00:10:12;8.33;;;6.20;;
82125;SDS011;71668;51.400;6.758;2023-08-20T00:12:39;9.10;;;5.37;;
82125;SDS011;71668;51.400;6.758;2023-08-20T00:15:06;8.67;;;6.23;;
82125;SDS011;71668;51.400;6.758;2023-08-20T00:17:33;6.20;;;5.60;;
82125;SDS011;71668;51.400;6.758;2023-08-20T00:20:03;6.53;;;5.83;;
82125;SDS011;71668;51.400;6.758;2023-08-20T00:22:37;6.60;;;5.47;;
82125;SDS011;71668;51.400;6.758;2023-08-20T00:25:04;6.03;;;5.30;;
82125;SDS011;71668;51.400;6.758;2023-08-20T00:27:32;7.33;;;5.13;;
82125;SDS011;71668;51.400;6.758;2023-08-20T00:29:59;9.13;;;5.20;;
82125;SDS011;71668;51.400;6.758;2023-08-20T00:32:26;6.83;;;5.17;;
82125;SDS011;71668;51.400;6.758;2023-08-20T00:34:53;9.10;;;5.93;;
82125;SDS011;71668;51.400;6.758;2023-08-20T00:37:20;7.47;;;5.60;;
82125;SDS011;71668;51.400;6.758;2023-08-20T00:39:47;8.23;;;5.67;;
82125;SDS011;71668;51.400;6.758;2023-08-20T00:42:14;7.17;;;5.97;;
82125;SDS011;71668;51.400;6.758;2023-08-20T00:44:41;9.10;;;5.50;;
82125;SDS011;71668;51.400;6.758;2023-08-20T00:47:10;8.30;;;6.23;;
82125;SDS011;71668;51.400;6.758;2023-08-20T00:49:40;7.57;;;5.73;;
82125;SDS011;71668;51.400;6.758;2023-08-20T00:52:08;7.83;;;6.20;;
82125;SDS011;71668;51.400;6.758;2023-08-20T00:54:36;6.43;;;5.73;;
82125;SDS011;71668;51.400;6.758;2023-08-20T00:57:05;8.90;;;6.07;;
82125;SDS011;71668;51.400;6.758;2023-08-20T00:59:33;9.83;;;6.27;;
82125;SDS011;71668;51.400;6.758;2023-08-20T01:02:00;7.33;;;6.30;;
82125;SDS011;71668;51.400;6.758;2023-08-20T01:04:28;8.27;;;6.43;;
82125;SDS011;71668;51.400;6.758;2023-08-20T01:10:13;6.90;;;6.23;;
82125;SDS011;71668;51.400;6.758;2023-08-20T01:12:46;8.20;;;6.63;;
82125;SDS011;71668;51.400;6.758;2023-08-20T01:15:13;8.97;;;6.90;;
82125;SDS011;71668;51.400;6.758;2023-08-20T01:17:42;9.07;;;7.40;;
82125;SDS011;71668;51.400;6.758;2023-08-20T01:20:09;7.80;;;7.00;;
82125;SDS011;71668;51.400;6.758;2023-08-20T01:30:54;10.17;;;7.60;;
82125;SDS011;71668;51.400;6.758;2023-08-20T01:33:25;8.77;;;7.90;;
82125;SDS011;71668;51.400;6.758;2023-08-20T01:35:54;9.27;;;7.30;;
82125;SDS011;71668;51.400;6.758;2023-08-20T01:38:21;9.70;;;7.70;;
82125;SDS011;71668;51.400;6.758;2023-08-20T01:40:48;9.20;;;7.70;;
82125;SDS011;71668;51.400;6.758;2023-08-20T01:43:15;9.93;;;6.97;;
82125;SDS011;71668;51.400;6.758;2023-08-20T01:45:43;10.53;;;7.00;;
82125;SDS011;71668;51.400;6.758;2023-08-20T01:48:09;12.67;;;7.03;;
82125;SDS011;71668;51.400;6.758;2023-08-20T01:50:36;9.73;;;7.23;;
82125;SDS011;71668;51.400;6.758;2023-08-20T01:53:04;8.30;;;6.80;;
82125;SDS011;71668;51.400;6.758;2023-08-20T01:55:31;8.07;;;6.90;;
82125;SDS011;71668;51.400;6.758;2023-08-20T01:57:58;7.40;;;6.70;;
82125;SDS011;71668;51.400;6.758;2023-08-20T02:00:25;9.63;;;6.40;;
82125;SDS011;71668;51.400;6.758;2023-08-20T02:02:56;8.17;;;6.97;;
82125;SDS011;71668;51.400;6.758;2023-08-20T02:05:23;8.77;;;6.97;;
82125;SDS011;71668;51.400;6.758;2023-08-20T02:07:51;7.87;;;7.07;;
82125;SDS011;71668;51.400;6.758;2023-08-20T02:10:17;10.47;;;6.83;;
82125;SDS011;71668;51.400;6.758;2023-08-20T02:12:44;7.80;;;7.00;;
82125;SDS011;71668;51.400;6.758;2023-08-20T02:15:11;7.63;;;6.60;;
82125;SDS011;71668;51.400;6.758;2023-08-20T02:17:38;8.57;;;6.57;;
82125;SDS011;71668;51.400;6.758;2023-08-20T02:20:05;8.40;;;6.60;;
82125;SDS011;71668;51.400;6.758;2023-08-20T02:22:35;7.73;;;6.63;;
82125;SDS011;71668;51.400;6.758;2023-08-20T02:25:02;7.07;;;6.37;;
82125;SDS011;71668;51.400;6.758;2023-08-20T02:27:30;9.50;;;6.77;;
82125;SDS011;71668;51.400;6.758;2023-08-20T02:29:57;7.37;;;6.63;;
82125;SDS011;71668;51.400;6.758;2023-08-20T02:32:25;8.23;;;6.10;;
82125;SDS011;71668;51.400;6.758;2023-08-20T02:34:51;7.47;;;6.67;;
82125;SDS011;71668;51.400;6.758;2023-08-20T02:37:19;8.43;;;6.43;;
82125;SDS011;71668;51.400;6.758;2023-08-20T02:39:46;7.10;;;5.97;;
82125;SDS011;71668;51.400;6.758;2023-08-20T02:42:13;6.93;;;6.23;;
82125;SDS011;71668;51.400;6.758;2023-08-20T02:44:40;8.13;;;6.23;;
82125;SDS011;71668;51.400;6.758;2023-08-20T02:47:07;7.50;;;6.50;;
82125;SDS011;71668;51.400;6.758;2023-08-20T02:49:34;7.30;;;6.60;;
82125;SDS011;71668;51.400;6.758;2023-08-20T02:52:02;11.20;;;7.40;;
82125;SDS011;71668;51.400;6.758;2023-08-20T02:54:29;7.63;;;6.80;;
82125;SDS011;71668;51.400;6.758;2023-08-20T02:56:58;8.27;;;7.00;;
82125;SDS011;71668;51.400;6.758;2023-08-20T02:59:25;9.67;;;6.73;;
82125;SDS011;71668;51.400;6.758;2023-08-20T03:01:52;11.33;;;7.53;;
82125;SDS011;71668;51.400;6.758;2023-08-20T03:04:19;9.33;;;6.97;;
82125;SDS011;71668;51.400;6.758;2023-08-20T03:06:46;8.40;;;6.83;;
82125;SDS011;71668;51.400;6.758;2023-08-20T03:09:13;7.90;;;6.60;;
82125;SDS011;71668;51.400;6.758;2023-08-20T03:11:40;8.07;;;6.30;;
82125;SDS011;71668;51.400;6.758;2023-08-20T03:14:07;7.47;;;6.73;;
82125;SDS011;71668;51.400;6.758;2023-08-20T03:16:34;7.80;;;6.87;;
82125;SDS011;71668;51.400;6.758;2023-08-20T03:19:00;7.20;;;6.47;;
82125;SDS011;71668;51.400;6.758;2023-08-20T03:21:29;11.23;;;7.23;;
82125;SDS011;71668;51.400;6.758;2023-08-20T03:23:55;9.73;;;7.40;;
82125;SDS011;71668;51.400;6.758;2023-08-20T03:26:22;10.20;;;7.97;;
82125;SDS011;71668;51.400;6.758;2023-08-20T03:28:49;9.87;;;8.40;;
82125;SDS011;71668;51.400;6.758;2023-08-20T03:31:17;9.80;;;7.90;;
82125;SDS011;71668;51.400;6.758;2023-08-20T03:33:45;10.03;;;7.90;;
82125;SDS011;71668;51.400;6.758;2023-08-20T03:36:12;9.00;;;8.10;;
82125;SDS011;71668;51.400;6.758;2023-08-20T03:38:40;9.97;;;8.60;;
82125;SDS011;71668;51.400;6.758;2023-08-20T03:41:07;9.77;;;8.23;;
82125;SDS011;71668;51.400;6.758;2023-08-20T03:43:34;9.37;;;8.37;;
82125;SDS011;71668;51.400;6.758;2023-08-20T03:46:01;9.17;;;8.27;;
82125;SDS011;71668;51.400;6.758;2023-08-20T03:48:29;9.77;;;7.77;;
82125;SDS011;71668;51.400;6.758;2023-08-20T03:50:56;9.17;;;8.20;;
82125;SDS011;71668;51.400;6.758;2023-08-20T03:53:23;8.83;;;7.73;;
82125;SDS011;71668;51.400;6.758;2023-08-20T03:55:50;11.40;;;8.80;;
82125;SDS011;71668;51.400;6.758;2023-08-20T03:58:18;9.53;;;8.57;;
82125;SDS011;71668;51.400;6.758;2023-08-20T04:00:45;11.03;;;8.20;;
82125;SDS011;71668;51.400;6.758;2023-08-20T04:03:12;11.13;;;8.33;;
82125;SDS011;71668;51.400;6.758;2023-08-20T04:05:46;10.87;;;8.43;;
82125;SDS011;71668;51.400;6.758;2023-08-20T04:08:16;12.43;;;10.00;;
82125;SDS011;71668;51.400;6.758;2023-08-20T04:10:43;11.63;;;10.40;;
82125;SDS011;71668;51.400;6.758;2023-08-20T04:13:13;10.37;;;9.27;;
82125;SDS011;71668;51.400;6.758;2023-08-20T04:15:40;9.93;;;8.93;;
82125;SDS011;71668;51.400;6.758;2023-08-20T04:18:07;9.97;;;8.57;;
82125;SDS011;71668;51.400;6.758;2023-08-20T04:20:34;9.60;;;8.70;;
82125;SDS011;71668;51.400;6.758;2023-08-20T04:23:02;10.97;;;8.63;;
82125;SDS011;71668;51.400;6.758;2023-08-20T04:25:29;10.83;;;8.77;;
82125;SDS011;71668;51.400;6.758;2023-08-20T04:27:56;10.80;;;8.83;;
82125;SDS011;71668;51.400;6.758;2023-08-20T04:30:23;11.57;;;9.20;;
82125;SDS011;71668;51.400;6.758;2023-08-20T04:32:49;9.37;;;8.37;;
82125;SDS011;71668;51.400;6.758;2023-08-20T04:35:16;10.67;;;9.20;;
82125;SDS011;71668;51.400;6.758;2023-08-20T04:37:43;9.57;;;8.57;;
82125;SDS011;71668;51.400;6.758;2023-08-20T04:40:10;10.33;;;8.10;;
82125;SDS011;71668;51.400;6.758;2023-08-20T04:42:38;12.27;;;9.50;;
82125;SDS011;71668;51.400;6.758;2023-08-20T04:45:05;11.40;;;8.40;;
82125;SDS011;71668;51.400;6.758;2023-08-20T04:47:33;11.20;;;9.03;;
82125;SDS011;71668;51.400;6.758;2023-08-20T04:50:02;12.83;;;9.63;;
82125;SDS011;71668;51.400;6.758;2023-08-20T04:52:35;10.20;;;9.20;;
82125;SDS011;71668;51.400;6.758;2023-08-20T04:55:02;10.80;;;8.73;;
82125;SDS011;71668;51.400;6.758;2023-08-20T04:57:29;12.70;;;8.27;;
82125;SDS011;71668;51.400;6.758;2023-08-20T04:59:56;10.13;;;8.93;;
82125;SDS011;71668;51.400;6.758;2023-08-20T05:02:39;9.90;;;8.90;;
82125;SDS011;71668;51.400;6.758;2023-08-20T05:05:10;9.97;;;8.27;;
82125;SDS011;71668;51.400;6.758;2023-08-20T05:07:37;9.73;;;8.67;;
82125;SDS011;71668;51.400;6.758;2023-08-20T05:10:05;9.37;;;8.47;;
82125;SDS011;71668;51.400;6.758;2023-08-20T05:12:32;12.40;;;10.97;;
82125;SDS011;71668;51.400;6.758;2023-08-20T05:15:00;13.00;;;11.30;;
82125;SDS011;71668;51.400;6.758;2023-08-20T05:17:26;13.03;;;11.00;;
82125;SDS011;71668;51.400;6.758;2023-08-20T05:19:53;10.83;;;9.73;;
82125;SDS011;71668;51.400;6.758;2023-08-20T05:22:20;11.73;;;9.83;;
82125;SDS011;71668;51.400;6.758;2023-08-20T05:24:48;10.23;;;9.27;;
82125;SDS011;71668;51.400;6.758;2023-08-20T05:27:16;10.97;;;9.87;;
82125;SDS011;71668;51.400;6.758;2023-08-20T05:29:46;15.70;;;11.87;;
82125;SDS011;71668;51.400;6.758;2023-08-20T05:32:14;13.60;;;11.97;;
82125;SDS011;71668;51.400;6.758;2023-08-20T05:34:43;13.27;;;11.97;;
82125;SDS011;71668;51.400;6.758;2023-08-20T05:37:09;15.17;;;12.47;;
82125;SDS011;71668;51.400;6.758;2023-08-20T05:39:40;16.70;;;12.97;;
82125;SDS011;71668;51.400;6.758;2023-08-20T05:42:09;15.03;;;12.10;;
82125;SDS011;71668;51.400;6.758;2023-08-20T05:44:38;12.37;;;11.13;;
82125;SDS011;71668;51.400;6.758;2023-08-20T05:47:09;14.60;;;12.50;;
82125;SDS011;71668;51.400;6.758;2023-08-20T05:49:36;13.37;;;11.60;;
82125;SDS011;71668;51.400;6.758;2023-08-20T05:52:03;12.87;;;11.57;;
82125;SDS011;71668;51.400;6.758;2023-08-20T05:54:30;12.80;;;11.50;;
82125;SDS011;71668;51.400;6.758;2023-08-20T05:56:57;13.27;;;11.87;;
82125;SDS011;71668;51.400;6.758;2023-08-20T05:59:25;12.97;;;11.57;;
82125;SDS011;71668;51.400;6.758;2023-08-20T06:01:52;12.77;;;11.53;;
82125;SDS011;71668;51.400;6.758;2023-08-20T06:04:20;12.90;;;11.63;;
82125;SDS011;71668;51.400;6.758;2023-08-20T06:06:47;14.00;;;12.67;;
82125;SDS011;71668;51.400;6.758;2023-08-20T06:09:14;13.40;;;12.17;;
82125;SDS011;71668;51.400;6.758;2023-08-20T06:11:41;12.70;;;11.40;;
82125;SDS011;71668;51.400;6.758;2023-08-20T06:14:07;14.80;;;13.27;;
82125;SDS011;71668;51.400;6.758;2023-08-20T06:16:34;14.00;;;12.47;;
82125;SDS011;71668;51.400;6.758;2023-08-20T06:19:01;14.73;;;13.10;;
82125;SDS011;71668;51.400;6.758;2023-08-20T06:21:30;13.23;;;11.93;;
82125;SDS011;71668;51.400;6.758;2023-08-20T06:23:57;13.30;;;12.00;;
82125;SDS011;71668;51.400;6.758;2023-08-20T06:26:24;13.30;;;12.00;;
82125;SDS011;71668;51.400;6.758;2023-08-20T06:28:51;13.53;;;12.13;;
82125;SDS011;71668;51.400;6.758;2023-08-20T06:31:18;13.30;;;12.03;;
82125;SDS011;71668;51.400;6.758;2023-08-20T06:33:46;12.90;;;11.60;;
82125;SDS011;71668;51.400;6.758;2023-08-20T06:36:13;12.67;;;11.47;;
82125;SDS011;71668;51.400;6.758;2023-08-20T06:38:40;14.30;;;12.32;;
82125;SDS011;71668;51.400;6.758;2023-08-20T06:41:07;11.63;;;10.50;;
82125;SDS011;71668;51.400;6.758;2023-08-20T06:43:34;12.85;;;11.63;;
82125;SDS011;71668;51.400;6.758;2023-08-20T06:46:00;12.40;;;11.05;;
82125;SDS011;71668;51.400;6.758;2023-08-20T06:48:27;13.65;;;12.25;;
82125;SDS011;71668;51.400;6.758;2023-08-20T06:50:54;12.95;;;11.75;;
82125;SDS011;71668;51.400;6.758;2023-08-20T06:53:21;13.52;;;12.10;;
82125;SDS011;71668;51.400;6.758;2023-08-20T06:55:48;12.48;;;11.25;;
82125;SDS011;71668;51.400;6.758;2023-08-20T06:58:15;13.77;;;11.48;;
82125;SDS011;71668;51.400;6.758;2023-08-20T07:00:42;13.70;;;12.40;;
82125;SDS011;71668;51.400;6.758;2023-08-20T07:03:09;13.75;;;12.48;;
82125;SDS011;71668;51.400;6.758;2023-08-20T07:05:36;13.05;;;11.85;;
82125;SDS011;71668;51.400;6.758;2023-08-20T07:08:03;12.68;;;11.48;;
82125;SDS011;71668;51.400;6.758;2023-08-20T07:10:30;13.25;;;11.95;;
82125;SDS011;71668;51.400;6.758;2023-08-20T07:12:57;11.95;;;10.75;;
82125;SDS011;71668;51.400;6.758;2023-08-20T07:15:23;12.25;;;11.07;;
82125;SDS011;71668;51.400;6.758;2023-08-20T07:17:50;12.10;;;11.00;;
82125;SDS011;71668;51.400;6.758;2023-08-20T07:20:17;11.63;;;10.52;;
82125;SDS011;71668;51.400;6.758;2023-08-20T07:22:44;11.20;;;10.10;;
82125;SDS011;71668;51.400;6.758;2023-08-20T07:25:11;11.90;;;10.57;;
82125;SDS011;71668;51.400;6.758;2023-08-20T07:27:37;11.27;;;10.00;;
82125;SDS011;71668;51.400;6.758;2023-08-20T07:30:05;11.40;;;10.40;;
82125;SDS011;71668;51.400;6.758;2023-08-20T07:32:33;11.45;;;10.15;;
82125;SDS011;71668;51.400;6.758;2023-08-20T07:35:00;11.65;;;10.45;;
82125;SDS011;71668;51.400;6.758;2023-08-20T07:37:27;11.52;;;10.40;;
82125;SDS011;71668;51.400;6.758;2023-08-20T07:39:54;11.55;;;10.38;;
82125;SDS011;71668;51.400;6.758;2023-08-20T07:42:20;11.95;;;10.75;;
82125;SDS011;71668;51.400;6.758;2023-08-20T07:44:47;14.13;;;11.73;;
82125;SDS011;71668;51.400;6.758;2023-08-20T07:47:14;14.23;;;11.98;;
82125;SDS011;71668;51.400;6.758;2023-08-20T07:49:41;22.63;;;17.05;;
82125;SDS011;71668;51.400;6.758;2023-08-20T07:52:08;21.73;;;18.23;;
82125;SDS011;71668;51.400;6.758;2023-08-20T07:54:35;20.33;;;16.98;;
82125;SDS011;71668;51.400;6.758;2023-08-20T07:57:02;19.63;;;16.42;;
82125;SDS011;71668;51.400;6.758;2023-08-20T07:59:29;19.95;;;15.32;;
82125;SDS011;71668;51.400;6.758;2023-08-20T08:01:56;16.98;;;14.20;;
82125;SDS011;71668;51.400;6.758;2023-08-20T08:04:23;15.73;;;13.48;;
82125;SDS011;71668;51.400;6.758;2023-08-20T08:06:50;15.73;;;14.05;;
82125;SDS011;71668;51.400;6.758;2023-08-20T08:09:35;16.52;;;14.80;;
82125;SDS011;71668;51.400;6.758;2023-08-20T08:12:02;13.10;;;11.80;;
82125;SDS011;71668;51.400;6.758;2023-08-20T08:14:31;13.52;;;12.30;;
82125;SDS011;71668;51.400;6.758;2023-08-20T08:16:57;26.30;;;24.23;;
82125;SDS011;71668;51.400;6.758;2023-08-20T08:19:24;523.15;;;271.42;;
82125;SDS011;71668;51.400;6.758;2023-08-20T08:21:51;1999.90;;;999.90;;
82125;SDS011;71668;51.400;6.758;2023-08-20T08:24:18;1999.90;;;999.90;;
82125;SDS011;71668;51.400;6.758;2023-08-20T08:26:45;1999.90;;;999.90;;
82125;SDS011;71668;51.400;6.758;2023-08-20T08:29:12;1999.90;;;999.90;;
82125;SDS011;71668;51.400;6.758;2023-08-20T08:31:39;1999.90;;;999.90;;
82125;SDS011;71668;51.400;6.758;2023-08-20T08:34:05;1999.90;;;999.90;;
82125;SDS011;71668;51.400;6.758;2023-08-20T08:36:32;1999.90;;;999.90;;
82125;SDS011;71668;51.400;6.758;2023-08-20T08:38:59;1999.90;;;999.90;;
82125;SDS011;71668;51.400;6.758;2023-08-20T08:41:26;1999.90;;;999.90;;
82125;SDS011;71668;51.400;6.758;2023-08-20T08:43:55;1999.90;;;999.90;;
82125;SDS011;71668;51.400;6.758;2023-08-20T08:46:23;1999.90;;;999.90;;
82125;SDS011;71668;51.400;6.758;2023-08-20T08:48:51;26.00;;;24.10;;
82125;SDS011;71668;51.400;6.758;2023-08-20T08:51:19;1999.90;;;999.90;;
82125;SDS011;71668;51.400;6.758;2023-08-20T08:53:45;1999.90;;;999.90;;
82125;SDS011;71668;51.400;6.758;2023-08-20T08:56:13;6.57;;;6.18;;
82125;SDS011;71668;51.400;6.758;2023-08-20T08:58:40;10.35;;;9.50;;
82125;SDS011;71668;51.400;6.758;2023-08-20T09:01:07;10.48;;;8.82;;
82125;SDS011;71668;51.400;6.758;2023-08-20T09:03:34;9.68;;;8.68;;
82125;SDS011;71668;51.400;6.758;2023-08-20T09:06:01;10.35;;;7.93;;
82125;SDS011;71668;51.400;6.758;2023-08-20T09:08:34;10.25;;;8.18;;
82125;SDS011;71668;51.400;6.758;2023-08-20T09:11:01;11.25;;;10.05;;
82125;SDS011;71668;51.400;6.758;2023-08-20T09:13:38;9.48;;;8.48;;
82125;SDS011;71668;51.400;6.758;2023-08-20T09:16:07;9.13;;;8.18;;
82125;SDS011;71668;51.400;6.758;2023-08-20T09:21:09;11.07;;;9.98;;
82125;SDS011;71668;51.400;6.758;2023-08-20T09:23:38;10.88;;;9.77;;
82125;SDS011;71668;51.400;6.758;2023-08-20T09:26:05;10.45;;;9.40;;
82125;SDS011;71668;51.400;6.758;2023-08-20T09:28:43;11.27;;;9.43;;
82125;SDS011;71668;51.400;6.758;2023-08-20T09:31:11;11.52;;;8.82;;
82125;SDS011;71668;51.400;6.758;2023-08-20T09:33:50;8.65;;;7.85;;
82125;SDS011;71668;51.400;6.758;2023-08-20T09:36:30;8.52;;;7.50;;
82125;SDS011;71668;51.400;6.758;2023-08-20T09:39:01;7.60;;;6.90;;
82125;SDS011;71668;51.400;6.758;2023-08-20T09:41:28;8.35;;;7.55;;
82125;SDS011;71668;51.400;6.758;2023-08-20T09:43:56;8.30;;;7.55;;
82125;SDS011;71668;51.400;6.758;2023-08-20T09:46:27;8.77;;;7.75;;
82125;SDS011;71668;51.400;6.758;2023-08-20T09:48:57;8.52;;;7.00;;
82125;SDS011;71668;51.400;6.758;2023-08-20T09:51:25;8.98;;;8.07;;
82125;SDS011;71668;51.400;6.758;2023-08-20T09:54:14;11.85;;;9.93;;
82125;SDS011;71668;51.400;6.758;2023-08-20T09:56:52;8.60;;;7.70;;
82125;SDS011;71668;51.400;6.758;2023-08-20T09:59:24;7.90;;;7.10;;
82125;SDS011;71668;51.400;6.758;2023-08-20T10:01:51;9.10;;;8.25;;
82125;SDS011;71668;51.400;6.758;2023-08-20T10:04:20;10.38;;;9.18;;
82125;SDS011;71668;51.400;6.758;2023-08-20T10:06:48;12.45;;;11.13;;
82125;SDS011;71668;51.400;6.758;2023-08-20T10:09:16;12.65;;;11.45;;
82125;SDS011;71668;51.400;6.758;2023-08-20T10:11:44;12.13;;;10.90;;
82125;SDS011;71668;51.400;6.758;2023-08-20T10:14:12;11.80;;;10.63;;
82125;SDS011;71668;51.400;6.758;2023-08-20T10:16:39;11.95;;;10.82;;
82125;SDS011;71668;51.400;6.758;2023-08-20T10:19:06;13.02;;;11.73;;
82125;SDS011;71668;51.400;6.758;2023-08-20T10:21:34;12.70;;;10.75;;
82125;SDS011;71668;51.400;6.758;2023-08-20T10:24:05;12.55;;;11.30;;
82125;SDS011;71668;51.400;6.758;2023-08-20T10:26:33;11.88;;;10.70;;
82125;SDS011;71668;51.400;6.758;2023-08-20T10:29:47;11.55;;;10.20;;
82125;SDS011;71668;51.400;6.758;2023-08-20T10:32:10;10.27;;;9.27;;
82125;SDS011;71668;51.400;6.758;2023-08-20T10:34:39;11.25;;;10.20;;
82125;SDS011;71668;51.400;6.758;2023-08-20T10:37:09;10.07;;;9.00;;
82125;SDS011;71668;51.400;6.758;2023-08-20T10:39:39;9.85;;;8.90;;
82125;SDS011;71668;51.400;6.758;2023-08-20T10:50:04;9.38;;;8.48;;
82125;SDS011;71668;51.400;6.758;2023-08-20T10:52:31;11.43;;;8.50;;
82125;SDS011;71668;51.400;6.758;2023-08-20T10:54:58;9.18;;;7.72;;
82125;SDS011;71668;51.400;6.758;2023-08-20T10:57:32;7.30;;;6.63;;
82125;SDS011;71668;51.400;6.758;2023-08-20T11:00:02;6.68;;;6.13;;
82125;SDS011;71668;51.400;6.758;2023-08-20T11:02:35;8.52;;;6.85;;
82125;SDS011;71668;51.400;6.758;2023-08-20T11:05:03;7.10;;;6.43;;
82125;SDS011;71668;51.400;6.758;2023-08-20T11:07:31;6.80;;;6.18;;
82125;SDS011;71668;51.400;6.758;2023-08-20T11:10:01;6.70;;;6.10;;
82125;SDS011;71668;51.400;6.758;2023-08-20T11:12:31;5.93;;;5.43;;
82125;SDS011;71668;51.400;6.758;2023-08-20T11:15:01;7.50;;;5.97;;
82125;SDS011;71668;51.400;6.758;2023-08-20T11:17:29;7.03;;;6.32;;
82125;SDS011;71668;51.400;6.758;2023-08-20T11:19:56;6.85;;;6.25;;
82125;SDS011;71668;51.400;6.758;2023-08-20T11:22:33;8.85;;;5.70;;
82125;SDS011;71668;51.400;6.758;2023-08-20T11:25:00;7.03;;;4.88;;
82125;SDS011;71668;51.400;6.758;2023-08-20T11:27:27;7.40;;;5.78;;
82125;SDS011;71668;51.400;6.758;2023-08-20T11:29:54;7.78;;;5.75;;
82125;SDS011;71668;51.400;6.758;2023-08-20T11:32:25;5.57;;;4.90;;
82125;SDS011;71668;51.400;6.758;2023-08-20T11:34:52;5.28;;;4.75;;
82125;SDS011;71668;51.400;6.758;2023-08-20T11:37:20;5.63;;;4.80;;
82125;SDS011;71668;51.400;6.758;2023-08-20T11:39:48;6.32;;;4.97;;
82125;SDS011;71668;51.400;6.758;2023-08-20T11:42:15;6.60;;;5.45;;
82125;SDS011;71668;51.400;6.758;2023-08-20T11:44:43;7.55;;;5.57;;
82125;SDS011;71668;51.400;6.758;2023-08-20T11:47:17;6.93;;;5.20;;
82125;SDS011;71668;51.400;6.758;2023-08-20T11:49:44;5.63;;;4.55;;
82125;SDS011;71668;51.400;6.758;2023-08-20T11:52:11;7.35;;;4.30;;
82125;SDS011;71668;51.400;6.758;2023-08-20T11:54:39;6.07;;;4.57;;
82125;SDS011;71668;51.400;6.758;2023-08-20T11:57:08;5.60;;;4.25;;
82125;SDS011;71668;51.400;6.758;2023-08-20T11:59:35;8.68;;;4.93;;
82125;SDS011;71668;51.400;6.758;2023-08-20T12:02:02;8.13;;;4.60;;
82125;SDS011;71668;51.400;6.758;2023-08-20T12:04:30;5.95;;;4.45;;
82125;SDS011;71668;51.400;6.758;2023-08-20T12:07:12;4.38;;;3.97;;
82125;SDS011;71668;51.400;6.758;2023-08-20T12:09:40;5.05;;;3.65;;
82125;SDS011;71668;51.400;6.758;2023-08-20T12:12:09;5.57;;;4.25;;
82125;SDS011;71668;51.400;6.758;2023-08-20T12:14:35;5.28;;;4.50;;
82125;SDS011;71668;51.400;6.758;2023-08-20T12:17:03;5.47;;;3.90;;
82125;SDS011;71668;51.400;6.758;2023-08-20T12:19:30;4.75;;;3.72;;
82125;SDS011;71668;51.400;6.758;2023-08-20T12:21:56;5.80;;;3.92;;
82125;SDS011;71668;51.400;6.758;2023-08-20T12:24:23;5.65;;;4.10;;
82125;SDS011;71668;51.400;6.758;2023-08-20T12:26:52;6.10;;;3.83;;
82125;SDS011;71668;51.400;6.758;2023-08-20T12:29:19;5.15;;;3.50;;
82125;SDS011;71668;51.400;6.758;2023-08-20T12:31:46;5.93;;;3.45;;
82125;SDS011;71668;51.400;6.758;2023-08-20T12:34:13;7.22;;;5.05;;
82125;SDS011;71668;51.400;6.758;2023-08-20T12:36:40;5.45;;;4.40;;
82125;SDS011;71668;51.400;6.758;2023-08-20T12:39:07;6.95;;;3.28;;
82125;SDS011;71668;51.400;6.758;2023-08-20T12:41:34;5.45;;;3.40;;
82125;SDS011;71668;51.400;6.758;2023-08-20T12:44:04;6.80;;;3.72;;
82125;SDS011;71668;51.400;6.758;2023-08-20T12:46:32;4.63;;;3.55;;
82125;SDS011;71668;51.400;6.758;2023-08-20T12:48:58;4.72;;;3.28;;
82125;SDS011;71668;51.400;6.758;2023-08-20T12:51:26;6.35;;;3.65;;
82125;SDS011;71668;51.400;6.758;2023-08-20T12:53:53;4.70;;;3.40;;
82125;SDS011;71668;51.400;6.758;2023-08-20T12:56:20;4.68;;;2.97;;
82125;SDS011;71668;51.400;6.758;2023-08-20T12:58:47;4.15;;;3.10;;
82125;SDS011;71668;51.400;6.758;2023-08-20T13:01:14;6.73;;;3.23;;
82125;SDS011;71668;51.400;6.758;2023-08-20T13:03:40;7.70;;;3.43;;
82125;SDS011;71668;51.400;6.758;2023-08-20T13:06:08;5.10;;;3.23;;
82125;SDS011;71668;51.400;6.758;2023-08-20T13:08:35;7.50;;;3.43;;
82125;SDS011;71668;51.400;6.758;2023-08-20T13:11:02;7.40;;;3.83;;
82125;SDS011;71668;51.400;6.758;2023-08-20T13:13:32;7.20;;;3.80;;
82125;SDS011;71668;51.400;6.758;2023-08-20T13:16:00;6.33;;;3.57;;
82125;SDS011;71668;51.400;6.758;2023-08-20T13:18:28;5.50;;;3.60;;
82125;SDS011;71668;51.400;6.758;2023-08-20T13:20:55;3.77;;;3.37;;
82125;SDS011;71668;51.400;6.758;2023-08-20T13:23:22;5.13;;;3.10;;
82125;SDS011;71668;51.400;6.758;2023-08-20T13:25:50;7.63;;;3.13;;
82125;SDS011;71668;51.400;6.758;2023-08-20T13:28:16;6.53;;;3.23;;
82125;SDS011;71668;51.400;6.758;2023-08-20T13:30:44;5.67;;;3.33;;
82125;SDS011;71668;51.400;6.758;2023-08-20T13:33:12;8.07;;;3.57;;
82125;SDS011;71668;51.400;6.758;2023-08-20T13:35:40;4.47;;;2.90;;
82125;SDS011;71668;51.400;6.758;2023-08-20T13:38:07;5.23;;;3.60;;
82125;SDS011;71668;51.400;6.758;2023-08-20T13:40:35;5.10;;;3.20;;
82125;SDS011;71668;51.400;6.758;2023-08-20T13:43:02;6.67;;;3.17;;
82125;SDS011;71668;51.400;6.758;2023-08-20T13:45:30;5.80;;;3.00;;
82125;SDS011;71668;51.400;6.758;2023-08-20T13:47:57;6.97;;;3.40;;
82125;SDS011;71668;51.400;6.758;2023-08-20T13:50:24;5.07;;;3.03;;
82125;SDS011;71668;51.400;6.758;2023-08-20T13:52:51;5.53;;;3.43;;
82125;SDS011;71668;51.400;6.758;2023-08-20T13:55:18;6.70;;;3.90;;
82125;SDS011;71668;51.400;6.758;2023-08-20T13:57:44;6.77;;;4.00;;
82125;SDS011;71668;51.400;6.758;2023-08-20T14:00:11;5.60;;;3.40;;
82125;SDS011;71668;51.400;6.758;2023-08-20T14:02:39;7.07;;;3.67;;
82125;SDS011;71668;51.400;6.758;2023-08-20T14:05:06;4.73;;;3.00;;
82125;SDS011;71668;51.400;6.758;2023-08-20T14:07:33;5.70;;;3.20;;
82125;SDS011;71668;51.400;6.758;2023-08-20T14:10:01;7.63;;;3.33;;
82125;SDS011;71668;51.400;6.758;2023-08-20T14:12:30;7.17;;;3.73;;
82125;SDS011;71668;51.400;6.758;2023-08-20T14:14:57;6.00;;;3.50;;
82125;SDS011;71668;51.400;6.758;2023-08-20T14:17:24;8.30;;;4.03;;
82125;SDS011;71668;51.400;6.758;2023-08-20T14:19:51;7.70;;;3.73;;
82125;SDS011;71668;51.400;6.758;2023-08-20T14:22:18;6.77;;;3.50;;
82125;SDS011;71668;51.400;6.758;2023-08-20T14:24:45;5.20;;;3.07;;
82125;SDS011;71668;51.400;6.758;2023-08-20T14:27:12;4.73;;;3.03;;
82125;SDS011;71668;51.400;6.758;2023-08-20T14:29:40;6.50;;;3.57;;
82125;SDS011;71668;51.400;6.758;2023-08-20T14:32:07;6.40;;;3.00;;
82125;SDS011;71668;51.400;6.758;2023-08-20T14:34:34;6.07;;;2.80;;
82125;SDS011;71668;51.400;6.758;2023-08-20T14:37:02;5.50;;;2.60;;
82125;SDS011;71668;51.400;6.758;2023-08-20T14:39:29;6.43;;;2.63;;
82125;SDS011;71668;51.400;6.758;2023-08-20T14:41:58;5.03;;;3.20;;
82125;SDS011;71668;51.400;6.758;2023-08-20T14:44:25;6.67;;;3.30;;
82125;SDS011;71668;51.400;6.758;2023-08-20T14:46:52;6.67;;;3.67;;
82125;SDS011;71668;51.400;6.758;2023-08-20T14:49:19;5.40;;;2.70;;
82125;SDS011;71668;51.400;6.758;2023-08-20T14:51:46;3.97;;;2.30;;
82125;SDS011;71668;51.400;6.758;2023-08-20T14:54:13;4.47;;;2.80;;
82125;SDS011;71668;51.400;6.758;2023-08-20T14:56:41;5.43;;;2.63;;
82125;SDS011;71668;51.400;6.758;2023-08-20T14:59:07;5.93;;;2.57;;
82125;SDS011;71668;51.400;6.758;2023-08-20T15:01:36;5.33;;;2.70;;
82125;SDS011;71668;51.400;6.758;2023-08-20T15:04:03;4.57;;;2.70;;